createdAt,value
2023-05-14T00:01:33.656Z,66522.50
2023-05-14T00:06:37.574Z,66477.44
2023-05-14T00:11:41.625Z,66438.84
2023-05-14T00:16:46.888Z,66374.34
2023-05-14T00:21:50.946Z,66379.63
2023-05-14T00:26:54.900Z,66306.72
2023-05-14T00:32:00.278Z,66284.72
2023-05-14T00:37:04.156Z,66256.84
2023-05-14T00:42:08.280Z,66319.22
2023-05-14T00:47:14.165Z,66337.31
2023-05-14T00:52:19.074Z,66312.16
2023-05-14T00:57:23.048Z,66302.34
2023-05-14T01:02:28.486Z,66232.69
2023-05-14T01:07:37.835Z,66230.63
2023-05-14T01:12:48.037Z,66215.63
2023-05-14T01:17:57.663Z,66154.00
2023-05-14T01:23:03.041Z,66137.31
2023-05-14T01:28:14.277Z,66304.03
2023-05-14T01:33:20.418Z,66293.94
2023-05-14T01:38:30.383Z,66281.59
2023-05-14T01:43:35.529Z,66226.88
2023-05-14T01:48:41.489Z,66243.34
2023-05-14T01:53:47.132Z,66260.59
2023-05-14T01:58:51.150Z,66175.31
2023-05-14T02:03:55.288Z,66137.75
2023-05-14T02:09:01.455Z,66206.88
2023-05-14T02:14:05.788Z,66161.84
2023-05-14T02:19:09.832Z,66103.09
2023-05-14T02:24:15.163Z,66122.81
2023-05-14T02:29:19.058Z,66179.63
2023-05-14T02:34:22.996Z,66202.06
2023-05-14T02:39:28.991Z,66002.44
2023-05-14T02:44:32.904Z,65956.84
2023-05-14T02:49:36.902Z,66024.19
2023-05-14T02:54:42.285Z,66019.38
2023-05-14T02:59:46.365Z,66172.56
2023-05-14T03:04:51.690Z,66114.28
2023-05-14T03:09:57.620Z,66200.44
2023-05-14T03:15:01.684Z,66233.31
2023-05-14T03:20:06.395Z,66283.66
2023-05-14T03:25:12.061Z,66281.88
2023-05-14T03:30:16.211Z,66323.50
2023-05-14T03:35:20.329Z,66402.34
2023-05-14T03:40:25.823Z,66379.22
2023-05-14T03:45:30.498Z,66414.16
2023-05-14T03:50:36.200Z,66404.94
2023-05-14T03:55:41.505Z,66372.72
2023-05-14T04:00:48.372Z,66255.75
2023-05-14T04:05:52.331Z,66373.69
2023-05-14T04:10:58.139Z,66383.47
2023-05-14T04:16:02.113Z,66404.94
2023-05-14T04:21:06.861Z,66498.41
2023-05-14T04:26:12.304Z,66566.72
2023-05-14T04:31:17.057Z,66571.50
2023-05-14T04:36:20.999Z,66553.91
2023-05-14T04:41:26.335Z,66657.50
2023-05-14T04:46:30.338Z,66604.34
2023-05-14T04:51:34.456Z,66634.47
2023-05-14T04:56:39.789Z,66674.25
2023-05-14T05:01:44.056Z,66666.59
2023-05-14T05:06:48.056Z,66704.88
2023-05-14T05:11:53.324Z,66826.44
2023-05-14T05:16:57.422Z,66791.50
2023-05-14T05:22:01.317Z,66678.47
2023-05-14T05:27:07.079Z,66768.97
2023-05-14T05:32:10.793Z,66738.22
2023-05-14T05:37:15.043Z,66757.75
2023-05-14T05:42:20.900Z,66725.94
2023-05-14T05:47:24.948Z,66857.69
2023-05-14T05:52:29.071Z,66808.34
2023-05-14T05:57:34.602Z,66900.38
2023-05-14T06:02:38.494Z,66945.66
2023-05-14T06:07:42.608Z,66828.66
2023-05-14T06:12:47.918Z,66878.84
2023-05-14T06:17:51.897Z,66860.53
2023-05-14T06:22:55.882Z,66838.34
2023-05-14T06:28:01.262Z,66844.81
2023-05-14T06:33:05.446Z,66894.91
2023-05-14T06:38:09.577Z,66981.16
2023-05-14T06:43:14.865Z,66945.59
2023-05-14T06:48:20.093Z,66923.47
2023-05-14T06:53:24.098Z,67061.50
2023-05-14T06:58:29.426Z,67133.31
2023-05-14T07:03:33.344Z,67035.59
2023-05-14T07:08:37.279Z,67041.63
2023-05-14T07:13:42.951Z,67029.06
2023-05-14T07:18:46.735Z,67063.13
2023-05-14T07:23:50.615Z,67165.72
2023-05-14T07:28:55.907Z,67108.50
2023-05-14T07:33:59.778Z,67093.47
2023-05-14T07:39:03.684Z,67116.53
2023-05-14T07:44:09.173Z,67157.09
2023-05-14T07:49:13.218Z,67186.22
2023-05-14T07:54:18.244Z,67181.38
2023-05-14T07:59:23.697Z,67145.22
2023-05-14T08:04:27.662Z,67197.50
2023-05-14T08:09:31.702Z,67184.00
2023-05-14T08:14:37.229Z,67195.25
2023-05-14T08:19:41.238Z,67200.25
2023-05-14T08:24:45.147Z,67243.47
2023-05-14T08:29:50.395Z,67289.84
2023-05-14T08:34:54.340Z,67285.00
2023-05-14T08:39:58.354Z,67359.56
2023-05-14T08:45:06.863Z,67347.19
2023-05-14T08:50:11.414Z,67315.84
2023-05-14T08:55:15.838Z,67350.44
2023-05-14T09:00:21.700Z,67408.19
2023-05-14T09:05:26.129Z,67347.19
2023-05-14T09:10:30.040Z,67273.09
2023-05-14T09:15:36.479Z,67317.94
2023-05-14T09:20:42.915Z,67347.56
2023-05-14T09:25:49.571Z,67267.25
2023-05-14T09:30:55.990Z,67269.34
2023-05-14T09:36:00.913Z,67296.41
2023-05-14T09:41:05.090Z,67341.78
2023-05-14T09:46:11.788Z,67349.28
2023-05-14T09:51:17.212Z,67374.63
2023-05-14T09:56:21.816Z,67385.50
2023-05-14T10:01:29.591Z,67353.13
2023-05-14T10:06:37.530Z,67350.84
2023-05-14T10:11:45.604Z,67452.56
2023-05-14T10:16:52.528Z,67475.19
2023-05-14T10:22:01.940Z,67570.00
2023-05-14T10:27:06.341Z,67467.69
2023-05-14T10:32:13.368Z,67388.19
2023-05-14T10:37:18.965Z,67405.03
2023-05-14T10:42:24.366Z,67385.56
2023-05-14T10:47:30.402Z,67428.28
2023-05-14T10:52:35.153Z,67373.19
2023-05-14T10:57:40.779Z,67412.53
2023-05-14T11:02:46.975Z,67460.13
2023-05-14T11:07:51.647Z,67431.53
2023-05-14T11:12:55.571Z,67464.97
2023-05-14T11:18:00.958Z,67449.84
2023-05-14T11:23:05.233Z,67661.53
2023-05-14T11:28:09.183Z,67904.34
2023-05-14T11:33:19.358Z,67655.50
2023-05-14T11:38:23.274Z,67714.63
2023-05-14T11:43:29.208Z,67717.88
2023-05-14T11:48:35.019Z,67787.72
2023-05-14T11:53:39.097Z,67732.50
2023-05-14T11:58:48.675Z,67748.13
2023-05-14T12:03:54.387Z,67602.44
2023-05-14T12:08:58.562Z,67746.56
2023-05-14T12:14:02.782Z,67831.16
2023-05-14T12:19:10.708Z,67819.66
2023-05-14T12:24:16.926Z,67858.72
2023-05-14T12:29:22.107Z,67851.69
2023-05-14T12:34:27.574Z,67795.78
2023-05-14T12:39:33.787Z,67660.97
2023-05-14T12:44:37.710Z,67684.81
2023-05-14T12:49:43.170Z,67703.19
2023-05-14T12:54:47.087Z,67794.22
2023-05-14T12:59:50.994Z,67656.53
2023-05-14T13:04:56.246Z,67844.63
2023-05-14T13:10:00.238Z,67901.56
2023-05-14T13:15:13.688Z,67891.72
2023-05-14T13:20:19.366Z,67775.75
2023-05-14T13:25:23.475Z,67896.66
2023-05-14T13:30:27.617Z,67901.47
2023-05-14T13:35:33.093Z,68009.00
2023-05-14T13:40:37.223Z,67844.09
2023-05-14T13:45:41.110Z,67744.88
2023-05-14T13:50:46.419Z,67763.88
2023-05-14T13:55:56.305Z,67715.53
2023-05-14T14:01:00.262Z,67688.09
2023-05-14T14:06:05.693Z,67641.34
2023-05-14T14:11:09.703Z,67650.06
2023-05-14T14:16:13.655Z,67706.34
2023-05-14T14:21:21.065Z,67796.94
2023-05-14T14:26:25.140Z,67748.59
2023-05-14T14:31:29.588Z,67692.25
2023-05-14T14:36:34.932Z,67597.63
2023-05-14T14:41:38.874Z,67579.13
2023-05-14T14:46:43.554Z,67551.03
2023-05-14T14:51:49.016Z,67493.66
2023-05-14T14:56:53.435Z,67557.50
2023-05-14T15:01:57.653Z,67550.59
2023-05-14T15:07:03.583Z,67521.31
2023-05-14T15:12:10.194Z,67479.59
2023-05-14T15:17:14.252Z,67517.53
2023-05-14T15:22:19.626Z,67514.28
2023-05-14T15:27:23.349Z,67472.63
2023-05-14T15:32:28.533Z,67461.78
2023-05-14T15:37:38.171Z,67420.16
2023-05-14T15:42:47.052Z,67448.34
2023-05-14T15:47:51.121Z,67442.16
2023-05-14T15:52:56.563Z,67430.38
2023-05-14T15:58:00.360Z,67438.56
2023-05-14T16:03:04.545Z,67432.50
2023-05-14T16:08:10.098Z,67401.78
2023-05-14T16:13:14.014Z,67417.47
2023-05-14T16:18:18.104Z,67377.94
2023-05-14T16:23:23.590Z,67364.50
2023-05-14T16:28:27.206Z,67363.84
2023-05-14T16:33:31.091Z,67305.56
2023-05-14T16:38:41.508Z,67348.28
2023-05-14T16:43:52.533Z,67338.56
2023-05-14T16:48:56.671Z,67323.34
2023-05-14T16:54:01.987Z,67335.19
2023-05-14T16:59:07.005Z,67314.16
2023-05-14T17:04:11.745Z,67314.69
2023-05-14T17:09:17.781Z,67309.38
2023-05-14T17:14:22.689Z,67271.44
2023-05-14T17:19:27.039Z,67304.44
2023-05-14T17:24:32.345Z,67302.88
2023-05-14T17:29:36.149Z,67260.09
2023-05-14T17:34:40.036Z,67246.72
2023-05-14T17:39:45.508Z,67281.69
2023-05-14T17:44:49.599Z,67268.31
2023-05-14T17:49:53.738Z,67253.66
2023-05-14T17:54:59.040Z,67212.59
2023-05-14T18:00:02.991Z,67237.00
2023-05-14T18:05:14.631Z,67246.19
2023-05-14T18:10:19.938Z,67215.38
2023-05-14T18:15:25.864Z,67213.09
2023-05-14T18:20:29.909Z,67245.56
2023-05-14T18:25:35.504Z,67209.38
2023-05-14T18:30:39.324Z,67164.50
2023-05-14T18:35:43.579Z,67195.88
2023-05-14T18:40:49.445Z,67187.25
2023-05-14T18:45:53.648Z,67177.00
2023-05-14T18:50:57.878Z,67180.81
2023-05-14T18:56:03.332Z,67167.22
2023-05-14T19:01:07.468Z,67147.31
2023-05-14T19:06:11.616Z,67160.34
2023-05-14T19:11:18.204Z,67154.31
2023-05-14T19:16:22.470Z,67133.88
2023-05-14T19:21:26.555Z,67100.81
2023-05-14T19:26:31.992Z,67056.72
2023-05-14T19:31:35.936Z,67109.59
2023-05-14T19:36:39.982Z,67098.19
2023-05-14T19:41:45.285Z,67072.78
2023-05-14T19:46:49.318Z,67076.59
2023-05-14T19:51:53.374Z,67017.19
2023-05-14T19:56:58.787Z,67069.59
2023-05-14T20:02:04.775Z,67042.16
2023-05-14T20:07:10.127Z,67098.19
2023-05-14T20:12:16.794Z,67080.53
2023-05-14T20:17:21.859Z,67168.28
2023-05-14T20:22:26.068Z,67194.28
2023-05-14T20:27:31.359Z,67229.41
2023-05-14T20:32:35.301Z,67147.84
2023-05-14T20:37:39.310Z,67137.50
2023-05-14T20:42:44.664Z,67102.03
2023-05-14T20:47:48.558Z,67117.59
2023-05-14T20:52:52.702Z,66984.31
2023-05-14T20:57:59.072Z,66943.97
2023-05-14T21:03:03.270Z,66882.44
2023-05-14T21:08:07.729Z,66918.56
2023-05-14T21:13:13.057Z,66946.59
2023-05-14T21:18:16.913Z,66928.41
2023-05-14T21:23:20.874Z,66881.53
2023-05-14T21:28:26.301Z,66840.53
2023-05-14T21:33:30.317Z,66830.28
2023-05-14T21:38:34.280Z,66818.53
2023-05-14T21:43:40.732Z,66774.28
2023-05-14T21:48:44.763Z,66813.50
2023-05-14T21:53:49.535Z,66814.66
2023-05-14T21:58:56.121Z,66816.72
2023-05-14T22:04:00.104Z,66788.72
2023-05-14T22:09:04.495Z,66733.84
2023-05-14T22:14:09.845Z,66712.84
2023-05-14T22:19:13.835Z,66737.59
2023-05-14T22:24:18.021Z,66765.66
2023-05-14T22:29:23.441Z,66721.59
2023-05-14T22:34:27.404Z,66782.28
2023-05-14T22:39:31.514Z,66782.41
2023-05-14T22:44:37.173Z,66839.53
2023-05-14T22:49:42.392Z,66843.28
2023-05-14T22:54:46.689Z,66828.13
2023-05-14T22:59:52.057Z,66795.81
2023-05-14T23:04:56.139Z,66782.97
2023-05-14T23:10:00.111Z,66763.59
2023-05-14T23:15:06.393Z,66817.66
2023-05-14T23:20:12.703Z,66823.28
2023-05-14T23:25:16.884Z,66781.34
2023-05-14T23:30:22.156Z,66747.28
2023-05-14T23:35:26.306Z,66743.06
2023-05-14T23:40:30.677Z,66674.09
2023-05-14T23:45:36.109Z,66697.88
2023-05-14T23:50:40.032Z,66708.56
2023-05-14T23:55:44.252Z,66736.06
